TimeCST,TemperatureF,Dew PointF,Humidity,Sea Level PressureIn,VisibilityMPH,Wind Direction,Wind SpeedMPH,Gust SpeedMPH,PrecipitationIn,Events,Conditions,WindDirDegrees,DateUTC
12:53 AM,21.0,19.0,92,30.31,10.0,NW,5.8,-,N/A,,Clear,310,2012-11-14 06:53:00
1:53 AM,19.0,17.1,92,30.31,10.0,West,3.5,-,N/A,,Clear,280,2012-11-14 07:53:00
2:53 AM,18.0,16.0,92,30.32,10.0,WNW,4.6,-,N/A,,Clear,300,2012-11-14 08:53:00
3:53 AM,18.0,16.0,92,30.31,10.0,NW,3.5,-,N/A,,Clear,310,2012-11-14 09:53:00
4:53 AM,16.0,12.9,88,30.31,10.0,Calm,Calm,-,N/A,,Clear,0,2012-11-14 10:53:00
5:53 AM,16.0,12.9,88,30.32,10.0,NW,6.9,-,N/A,,Clear,310,2012-11-14 11:53:00
6:53 AM,15.1,12.9,91,30.34,10.0,NW,5.8,-,N/A,,Clear,320,2012-11-14 12:53:00
7:53 AM,16.0,12.9,88,30.35,10.0,WNW,3.5,-,N/A,,Clear,290,2012-11-14 13:53:00
8:53 AM,25.0,19.9,81,30.35,10.0,Calm,Calm,-,N/A,,Clear,0,2012-11-14 14:53:00
9:53 AM,33.1,25.0,72,30.33,10.0,Calm,Calm,-,N/A,,Clear,0,2012-11-14 15:53:00
10:53 AM,39.0,27.0,62,30.31,10.0,Calm,Calm,-,N/A,,Clear,0,2012-11-14 16:53:00
11:53 AM,46.0,28.9,51,30.27,10.0,ESE,4.6,-,N/A,,Clear,120,2012-11-14 17:53:00
12:53 PM,55.9,26.1,32,30.21,10.0,SSW,11.5,-,N/A,,Clear,200,2012-11-14 18:53:00
1:53 PM,57.0,25.0,29,30.19,10.0,South,12.7,-,N/A,,Clear,180,2012-11-14 19:53:00
2:53 PM,59.0,25.0,27,30.16,10.0,SSW,15.0,19.6,N/A,,Clear,210,2012-11-14 20:53:00
3:53 PM,55.9,24.1,29,30.16,10.0,SSW,11.5,-,N/A,,Clear,200,2012-11-14 21:53:00
4:53 PM,54.0,24.1,31,30.15,10.0,South,11.5,-,N/A,,Clear,180,2012-11-14 22:53:00
5:53 PM,48.9,23.0,36,30.16,10.0,South,4.6,-,N/A,,Partly Cloudy,170,2012-11-14 23:53:00
6:53 PM,46.9,24.1,41,30.17,10.0,South,3.5,-,N/A,,Clear,170,2012-11-15 00:53:00
7:53 PM,48.0,24.1,39,30.18,10.0,South,6.9,-,N/A,,Scattered Clouds,180,2012-11-15 01:53:00
8:53 PM,44.1,24.1,45,30.18,10.0,Calm,Calm,-,N/A,,Partly Cloudy,0,2012-11-15 02:53:00
9:53 PM,46.0,24.1,42,30.17,10.0,South,4.6,-,N/A,,Mostly Cloudy,170,2012-11-15 03:53:00
10:53 PM,42.1,23.0,47,30.17,10.0,Calm,Calm,-,N/A,,Scattered Clouds,0,2012-11-15 04:53:00
11:53 PM,39.0,23.0,53,30.17,10.0,Calm,Calm,-,N/A,,Mostly Cloudy,0,2012-11-15 05:53:00